sensor_id;sensor_type;location;lat;lon;timestamp;temperature;humidity
71649;SHT31;70112;45.624;11.760;2023-09-12T00:02:21;21.02;70.69
71649;SHT31;70112;45.624;11.760;2023-09-12T00:04:47;21.05;70.60
71649;SHT31;70112;45.624;11.760;2023-09-12T00:07:15;21.07;70.53
71649;SHT31;70112;45.624;11.760;2023-09-12T00:09:41;21.08;70.47
71649;SHT31;70112;45.624;11.760;2023-09-12T00:12:06;21.11;70.36
71649;SHT31;70112;45.624;11.760;2023-09-12T00:14:33;21.12;70.30
71649;SHT31;70112;45.624;11.760;2023-09-12T00:16:58;21.10;70.41
71649;SHT31;70112;45.624;11.760;2023-09-12T00:19:25;21.06;70.50
71649;SHT31;70112;45.624;11.760;2023-09-12T00:21:50;21.03;70.49
71649;SHT31;70112;45.624;11.760;2023-09-12T00:24:17;21.01;70.42
71649;SHT31;70112;45.624;11.760;2023-09-12T00:26:43;20.98;70.47
71649;SHT31;70112;45.624;11.760;2023-09-12T00:29:08;20.92;70.37
71649;SHT31;70112;45.624;11.760;2023-09-12T00:31:34;20.86;70.38
71649;SHT31;70112;45.624;11.760;2023-09-12T00:33:59;20.82;70.42
71649;SHT31;70112;45.624;11.760;2023-09-12T00:36:25;20.77;70.49
71649;SHT31;70112;45.624;11.760;2023-09-12T00:38:50;20.74;70.56
71649;SHT31;70112;45.624;11.760;2023-09-12T00:41:15;20.70;70.62
71649;SHT31;70112;45.624;11.760;2023-09-12T00:43:41;20.65;70.73
71649;SHT31;70112;45.624;11.760;2023-09-12T00:46:07;20.60;70.88
71649;SHT31;70112;45.624;11.760;2023-09-12T00:48:32;20.59;71.00
71649;SHT31;70112;45.624;11.760;2023-09-12T00:50:58;20.55;71.16
71649;SHT31;70112;45.624;11.760;2023-09-12T00:53:25;20.52;71.27
71649;SHT31;70112;45.624;11.760;2023-09-12T00:55:51;20.53;71.46
71649;SHT31;70112;45.624;11.760;2023-09-12T00:58:22;20.53;71.52
71649;SHT31;70112;45.624;11.760;2023-09-12T01:00:49;20.49;71.51
71649;SHT31;70112;45.624;11.760;2023-09-12T01:03:14;20.48;71.46
71649;SHT31;70112;45.624;11.760;2023-09-12T01:05:41;20.42;71.44
71649;SHT31;70112;45.624;11.760;2023-09-12T01:08:08;20.36;71.53
71649;SHT31;70112;45.624;11.760;2023-09-12T01:10:34;20.33;71.68
71649;SHT31;70112;45.624;11.760;2023-09-12T01:13:00;20.33;71.79
71649;SHT31;70112;45.624;11.760;2023-09-12T01:15:25;20.31;71.93
71649;SHT31;70112;45.624;11.760;2023-09-12T01:17:51;20.31;72.21
71649;SHT31;70112;45.624;11.760;2023-09-12T01:20:23;20.32;72.32
71649;SHT31;70112;45.624;11.760;2023-09-12T01:22:55;20.33;72.37
71649;SHT31;70112;45.624;11.760;2023-09-12T01:28:53;20.33;72.47
71649;SHT31;70112;45.624;11.760;2023-09-12T01:31:20;20.32;72.49
71649;SHT31;70112;45.624;11.760;2023-09-12T01:33:49;20.27;72.47
71649;SHT31;70112;45.624;11.760;2023-09-12T01:36:14;20.25;72.39
71649;SHT31;70112;45.624;11.760;2023-09-12T01:38:40;20.20;72.33
71649;SHT31;70112;45.624;11.760;2023-09-12T01:41:06;20.14;72.42
71649;SHT31;70112;45.624;11.760;2023-09-12T01:43:32;20.09;72.50
71649;SHT31;70112;45.624;11.760;2023-09-12T01:46:02;20.07;72.57
71649;SHT31;70112;45.624;11.760;2023-09-12T01:48:28;20.03;72.68
71649;SHT31;70112;45.624;11.760;2023-09-12T01:51:02;20.00;72.60
71649;SHT31;70112;45.624;11.760;2023-09-12T01:53:29;19.97;72.56
71649;SHT31;70112;45.624;11.760;2023-09-12T01:55:57;19.92;72.70
71649;SHT31;70112;45.624;11.760;2023-09-12T01:58:24;19.88;72.85
71649;SHT31;70112;45.624;11.760;2023-09-12T02:00:50;19.84;72.98
71649;SHT31;70112;45.624;11.760;2023-09-12T02:03:16;19.83;73.11
71649;SHT31;70112;45.624;11.760;2023-09-12T02:05:41;19.81;73.21
71649;SHT31;70112;45.624;11.760;2023-09-12T02:08:07;19.80;73.30
71649;SHT31;70112;45.624;11.760;2023-09-12T02:10:33;19.79;73.28
71649;SHT31;70112;45.624;11.760;2023-09-12T02:12:58;19.78;73.28
71649;SHT31;70112;45.624;11.760;2023-09-12T02:15:24;19.77;73.38
71649;SHT31;70112;45.624;11.760;2023-09-12T02:17:49;19.79;73.40
71649;SHT31;70112;45.624;11.760;2023-09-12T02:20:15;19.80;73.42
71649;SHT31;70112;45.624;11.760;2023-09-12T02:22:41;19.83;73.43
71649;SHT31;70112;45.624;11.760;2023-09-12T02:25:07;19.84;73.48
71649;SHT31;70112;45.624;11.760;2023-09-12T02:27:34;19.84;73.51
71649;SHT31;70112;45.624;11.760;2023-09-12T02:29:59;19.85;73.56
71649;SHT31;70112;45.624;11.760;2023-09-12T02:32:25;19.83;73.56
71649;SHT31;70112;45.624;11.760;2023-09-12T02:34:50;19.82;73.67
71649;SHT31;70112;45.624;11.760;2023-09-12T02:37:18;19.82;73.70
71649;SHT31;70112;45.624;11.760;2023-09-12T02:39:44;19.81;73.74
71649;SHT31;70112;45.624;11.760;2023-09-12T02:42:09;19.83;73.83
71649;SHT31;70112;45.624;11.760;2023-09-12T02:44:35;19.83;73.90
71649;SHT31;70112;45.624;11.760;2023-09-12T02:47:01;19.83;73.86
71649;SHT31;70112;45.624;11.760;2023-09-12T02:49:28;19.81;73.67
71649;SHT31;70112;45.624;11.760;2023-09-12T02:51:53;19.79;73.60
71649;SHT31;70112;45.624;11.760;2023-09-12T02:54:18;19.76;73.48
71649;SHT31;70112;45.624;11.760;2023-09-12T02:56:44;19.71;73.46
71649;SHT31;70112;45.624;11.760;2023-09-12T02:59:09;19.67;73.43
71649;SHT31;70112;45.624;11.760;2023-09-12T03:01:35;19.65;73.43
71649;SHT31;70112;45.624;11.760;2023-09-12T03:04:00;19.61;73.55
71649;SHT31;70112;45.624;11.760;2023-09-12T03:06:26;19.56;73.60
71649;SHT31;70112;45.624;11.760;2023-09-12T03:08:53;19.50;73.64
71649;SHT31;70112;45.624;11.760;2023-09-12T03:11:19;19.46;73.76
71649;SHT31;70112;45.624;11.760;2023-09-12T03:13:44;19.42;73.78
71649;SHT31;70112;45.624;11.760;2023-09-12T03:16:10;19.40;73.70
71649;SHT31;70112;45.624;11.760;2023-09-12T03:18:37;19.36;73.76
71649;SHT31;70112;45.624;11.760;2023-09-12T03:21:02;19.32;73.83
71649;SHT31;70112;45.624;11.760;2023-09-12T03:23:28;19.32;73.91
71649;SHT31;70112;45.624;11.760;2023-09-12T03:25:53;19.33;74.00
71649;SHT31;70112;45.624;11.760;2023-09-12T03:28:19;19.34;74.02
71649;SHT31;70112;45.624;11.760;2023-09-12T03:30:45;19.33;74.00
71649;SHT31;70112;45.624;11.760;2023-09-12T03:33:10;19.32;73.93
71649;SHT31;70112;45.624;11.760;2023-09-12T03:35:35;19.29;73.90
71649;SHT31;70112;45.624;11.760;2023-09-12T03:38:01;19.28;73.90
71649;SHT31;70112;45.624;11.760;2023-09-12T03:40:30;19.24;73.97
71649;SHT31;70112;45.624;11.760;2023-09-12T03:42:56;19.21;73.99
71649;SHT31;70112;45.624;11.760;2023-09-12T03:45:23;19.15;74.11
71649;SHT31;70112;45.624;11.760;2023-09-12T03:47:49;19.12;74.29
71649;SHT31;70112;45.624;11.760;2023-09-12T03:50:16;19.10;74.40
71649;SHT31;70112;45.624;11.760;2023-09-12T03:52:41;19.11;74.42
71649;SHT31;70112;45.624;11.760;2023-09-12T03:55:07;19.12;74.32
71649;SHT31;70112;45.624;11.760;2023-09-12T03:57:33;19.12;74.39
71649;SHT31;70112;45.624;11.760;2023-09-12T03:59:59;19.09;74.32
71649;SHT31;70112;45.624;11.760;2023-09-12T04:02:24;19.03;74.36
71649;SHT31;70112;45.624;11.760;2023-09-12T04:04:49;18.98;74.50
71649;SHT31;70112;45.624;11.760;2023-09-12T04:07:17;18.96;74.59
71649;SHT31;70112;45.624;11.760;2023-09-12T04:09:42;18.92;74.66
71649;SHT31;70112;45.624;11.760;2023-09-12T04:12:08;18.93;74.72
71649;SHT31;70112;45.624;11.760;2023-09-12T04:14:34;18.90;74.76
71649;SHT31;70112;45.624;11.760;2023-09-12T04:17:01;18.89;74.80
71649;SHT31;70112;45.624;11.760;2023-09-12T04:19:26;18.86;74.81
71649;SHT31;70112;45.624;11.760;2023-09-12T04:21:52;18.80;74.88
71649;SHT31;70112;45.624;11.760;2023-09-12T04:24:17;18.77;75.02
71649;SHT31;70112;45.624;11.760;2023-09-12T04:26:43;18.76;75.05
71649;SHT31;70112;45.624;11.760;2023-09-12T04:29:09;18.76;75.06
71649;SHT31;70112;45.624;11.760;2023-09-12T04:31:35;18.75;75.17
71649;SHT31;70112;45.624;11.760;2023-09-12T04:34:01;18.74;75.13
71649;SHT31;70112;45.624;11.760;2023-09-12T04:36:27;18.73;75.07
71649;SHT31;70112;45.624;11.760;2023-09-12T04:38:52;18.70;75.09
71649;SHT31;70112;45.624;11.760;2023-09-12T04:41:18;18.68;75.10
71649;SHT31;70112;45.624;11.760;2023-09-12T04:43:43;18.65;75.14
71649;SHT31;70112;45.624;11.760;2023-09-12T04:46:10;18.63;75.20
71649;SHT31;70112;45.624;11.760;2023-09-12T04:48:36;18.63;75.28
71649;SHT31;70112;45.624;11.760;2023-09-12T04:51:03;18.60;75.29
71649;SHT31;70112;45.624;11.760;2023-09-12T04:53:29;18.60;75.30
71649;SHT31;70112;45.624;11.760;2023-09-12T04:55:59;18.59;75.30
71649;SHT31;70112;45.624;11.760;2023-09-12T04:58:26;18.61;75.28
71649;SHT31;70112;45.624;11.760;2023-09-12T05:00:51;18.62;75.30
71649;SHT31;70112;45.624;11.760;2023-09-12T05:03:17;18.64;75.37
71649;SHT31;70112;45.624;11.760;2023-09-12T05:05:45;18.68;75.38
71649;SHT31;70112;45.624;11.760;2023-09-12T05:08:12;18.67;75.33
71649;SHT31;70112;45.624;11.760;2023-09-12T05:10:38;18.69;75.33
71649;SHT31;70112;45.624;11.760;2023-09-12T05:13:04;18.69;75.30
71649;SHT31;70112;45.624;11.760;2023-09-12T05:15:30;18.69;75.32
71649;SHT31;70112;45.624;11.760;2023-09-12T05:17:55;18.70;75.38
71649;SHT31;70112;45.624;11.760;2023-09-12T05:20:21;18.71;75.33
71649;SHT31;70112;45.624;11.760;2023-09-12T05:22:46;18.71;75.36
71649;SHT31;70112;45.624;11.760;2023-09-12T05:25:12;18.72;75.40
71649;SHT31;70112;45.624;11.760;2023-09-12T05:27:37;18.74;75.44
71649;SHT31;70112;45.624;11.760;2023-09-12T05:30:03;18.73;75.55
71649;SHT31;70112;45.624;11.760;2023-09-12T05:32:29;18.76;75.61
71649;SHT31;70112;45.624;11.760;2023-09-12T05:34:56;18.78;75.66
71649;SHT31;70112;45.624;11.760;2023-09-12T05:37:21;18.82;75.73
71649;SHT31;70112;45.624;11.760;2023-09-12T05:39:46;18.86;75.79
71649;SHT31;70112;45.624;11.760;2023-09-12T05:42:12;18.92;75.92
71649;SHT31;70112;45.624;11.760;2023-09-12T05:44:40;18.94;75.99
71649;SHT31;70112;45.624;11.760;2023-09-12T05:47:09;18.96;76.19
71649;SHT31;70112;45.624;11.760;2023-09-12T05:49:34;19.00;76.32
71649;SHT31;70112;45.624;11.760;2023-09-12T05:52:00;19.06;76.39
71649;SHT31;70112;45.624;11.760;2023-09-12T05:54:25;19.13;76.53
71649;SHT31;70112;45.624;11.760;2023-09-12T05:56:51;19.18;76.53
71649;SHT31;70112;45.624;11.760;2023-09-12T05:59:18;19.23;76.55
71649;SHT31;70112;45.624;11.760;2023-09-12T06:01:43;19.31;76.67
71649;SHT31;70112;45.624;11.760;2023-09-12T06:04:10;19.37;76.52
71649;SHT31;70112;45.624;11.760;2023-09-12T06:06:35;19.44;76.47
71649;SHT31;70112;45.624;11.760;2023-09-12T06:09:01;19.52;76.50
71649;SHT31;70112;45.624;11.760;2023-09-12T06:11:27;19.62;76.53
71649;SHT31;70112;45.624;11.760;2023-09-12T06:13:52;19.71;76.50
71649;SHT31;70112;45.624;11.760;2023-09-12T06:16:18;19.81;76.42
71649;SHT31;70112;45.624;11.760;2023-09-12T06:18:43;19.92;76.32
71649;SHT31;70112;45.624;11.760;2023-09-12T06:21:09;20.06;76.14
71649;SHT31;70112;45.624;11.760;2023-09-12T06:23:34;20.17;76.04
71649;SHT31;70112;45.624;11.760;2023-09-12T06:26:00;20.26;75.91
71649;SHT31;70112;45.624;11.760;2023-09-12T06:28:26;20.36;75.69
71649;SHT31;70112;45.624;11.760;2023-09-12T06:30:56;20.44;75.47
71649;SHT31;70112;45.624;11.760;2023-09-12T06:33:23;20.55;75.28
71649;SHT31;70112;45.624;11.760;2023-09-12T06:35:50;20.66;74.94
71649;SHT31;70112;45.624;11.760;2023-09-12T06:38:18;20.77;74.76
71649;SHT31;70112;45.624;11.760;2023-09-12T06:40:45;20.86;74.76
71649;SHT31;70112;45.624;11.760;2023-09-12T06:43:14;20.95;74.66
71649;SHT31;70112;45.624;11.760;2023-09-12T06:45:40;21.05;74.56
71649;SHT31;70112;45.624;11.760;2023-09-12T06:48:06;21.16;74.45
71649;SHT31;70112;45.624;11.760;2023-09-12T06:50:32;21.24;74.42
71649;SHT31;70112;45.624;11.760;2023-09-12T06:52:58;21.32;74.28
71649;SHT31;70112;45.624;11.760;2023-09-12T06:55:24;21.40;74.10
71649;SHT31;70112;45.624;11.760;2023-09-12T06:57:49;21.49;73.98
71649;SHT31;70112;45.624;11.760;2023-09-12T07:00:15;21.56;73.95
71649;SHT31;70112;45.624;11.760;2023-09-12T07:02:42;21.65;73.91
71649;SHT31;70112;45.624;11.760;2023-09-12T07:05:08;21.75;73.46
71649;SHT31;70112;45.624;11.760;2023-09-12T07:07:34;21.84;73.24
71649;SHT31;70112;45.624;11.760;2023-09-12T07:09:59;21.93;73.07
71649;SHT31;70112;45.624;11.760;2023-09-12T07:12:28;22.02;73.10
71649;SHT31;70112;45.624;11.760;2023-09-12T07:14:54;22.11;72.90
71649;SHT31;70112;45.624;11.760;2023-09-12T07:17:21;22.21;73.12
71649;SHT31;70112;45.624;11.760;2023-09-12T07:19:47;22.31;72.55
71649;SHT31;70112;45.624;11.760;2023-09-12T07:22:13;22.42;72.11
71649;SHT31;70112;45.624;11.760;2023-09-12T07:24:38;22.53;71.75
71649;SHT31;70112;45.624;11.760;2023-09-12T07:27:04;22.63;71.43
71649;SHT31;70112;45.624;11.760;2023-09-12T07:29:30;22.73;71.40
71649;SHT31;70112;45.624;11.760;2023-09-12T07:31:55;22.81;70.97
71649;SHT31;70112;45.624;11.760;2023-09-12T07:34:21;22.92;70.82
71649;SHT31;70112;45.624;11.760;2023-09-12T07:36:47;23.02;70.67
71649;SHT31;70112;45.624;11.760;2023-09-12T07:39:12;23.03;70.72
71649;SHT31;70112;45.624;11.760;2023-09-12T07:41:38;23.05;70.73
71649;SHT31;70112;45.624;11.760;2023-09-12T07:44:03;23.08;70.60
71649;SHT31;70112;45.624;11.760;2023-09-12T07:46:33;23.14;70.96
71649;SHT31;70112;45.624;11.760;2023-09-12T07:48:58;23.15;70.77
71649;SHT31;70112;45.624;11.760;2023-09-12T07:51:24;23.18;70.91
71649;SHT31;70112;45.624;11.760;2023-09-12T07:53:50;23.21;71.10
71649;SHT31;70112;45.624;11.760;2023-09-12T07:56:16;23.25;70.86
71649;SHT31;70112;45.624;11.760;2023-09-12T07:58:41;23.31;70.96
71649;SHT31;70112;45.624;11.760;2023-09-12T08:01:07;23.39;71.10
71649;SHT31;70112;45.624;11.760;2023-09-12T08:03:35;23.47;70.96
71649;SHT31;70112;45.624;11.760;2023-09-12T08:06:02;23.57;70.74
71649;SHT31;70112;45.624;11.760;2023-09-12T08:08:28;23.68;69.82
71649;SHT31;70112;45.624;11.760;2023-09-12T08:10:55;23.78;69.64
71649;SHT31;70112;45.624;11.760;2023-09-12T08:13:22;23.87;69.12
71649;SHT31;70112;45.624;11.760;2023-09-12T08:15:50;23.93;68.77
71649;SHT31;70112;45.624;11.760;2023-09-12T08:18:16;24.00;68.86
71649;SHT31;70112;45.624;11.760;2023-09-12T08:20:42;24.07;68.57
71649;SHT31;70112;45.624;11.760;2023-09-12T08:23:08;24.15;68.54
71649;SHT31;70112;45.624;11.760;2023-09-12T08:25:34;24.20;68.36
71649;SHT31;70112;45.624;11.760;2023-09-12T08:28:00;24.27;68.10
71649;SHT31;70112;45.624;11.760;2023-09-12T08:30:25;24.38;67.96
71649;SHT31;70112;45.624;11.760;2023-09-12T08:32:51;24.51;67.96
71649;SHT31;70112;45.624;11.760;2023-09-12T08:35:16;24.65;67.68
71649;SHT31;70112;45.624;11.760;2023-09-12T08:37:42;24.79;67.67
71649;SHT31;70112;45.624;11.760;2023-09-12T08:40:08;24.93;67.07
71649;SHT31;70112;45.624;11.760;2023-09-12T08:42:39;25.08;66.84
71649;SHT31;70112;45.624;11.760;2023-09-12T08:47:41;25.37;65.86
71649;SHT31;70112;45.624;11.760;2023-09-12T08:50:12;25.53;65.70
71649;SHT31;70112;45.624;11.760;2023-09-12T08:52:40;25.65;65.28
71649;SHT31;70112;45.624;11.760;2023-09-12T08:55:09;25.79;65.15
71649;SHT31;70112;45.624;11.760;2023-09-12T08:57:38;25.89;65.01
71649;SHT31;70112;45.624;11.760;2023-09-12T09:00:06;25.93;64.71
71649;SHT31;70112;45.624;11.760;2023-09-12T09:02:37;25.94;64.28
71649;SHT31;70112;45.624;11.760;2023-09-12T09:05:04;25.88;63.26
71649;SHT31;70112;45.624;11.760;2023-09-12T09:07:35;25.79;63.52
71649;SHT31;70112;45.624;11.760;2023-09-12T09:10:05;25.67;63.51
71649;SHT31;70112;45.624;11.760;2023-09-12T09:12:34;25.58;63.41
71649;SHT31;70112;45.624;11.760;2023-09-12T09:17:49;25.63;63.12
71649;SHT31;70112;45.624;11.760;2023-09-12T09:20:36;25.59;63.44
71649;SHT31;70112;45.624;11.760;2023-09-12T09:25:32;25.48;63.82
71649;SHT31;70112;45.624;11.760;2023-09-12T09:28:01;25.43;64.09
71649;SHT31;70112;45.624;11.760;2023-09-12T09:30:39;25.42;64.39
71649;SHT31;70112;45.624;11.760;2023-09-12T09:33:10;25.44;64.58
71649;SHT31;70112;45.624;11.760;2023-09-12T09:35:37;25.50;64.72
71649;SHT31;70112;45.624;11.760;2023-09-12T09:38:06;25.68;64.69
71649;SHT31;70112;45.624;11.760;2023-09-12T09:40:33;26.02;64.17
71649;SHT31;70112;45.624;11.760;2023-09-12T09:43:00;26.34;63.14
71649;SHT31;70112;45.624;11.760;2023-09-12T09:45:27;26.63;62.84
71649;SHT31;70112;45.624;11.760;2023-09-12T09:47:58;26.82;62.15
71649;SHT31;70112;45.624;11.760;2023-09-12T09:50:33;26.91;61.24
71649;SHT31;70112;45.624;11.760;2023-09-12T09:53:03;26.98;61.13
71649;SHT31;70112;45.624;11.760;2023-09-12T09:55:30;27.08;61.00
71649;SHT31;70112;45.624;11.760;2023-09-12T09:57:57;27.18;60.53
71649;SHT31;70112;45.624;11.760;2023-09-12T10:00:23;27.27;59.91
71649;SHT31;70112;45.624;11.760;2023-09-12T10:02:51;27.33;59.63
71649;SHT31;70112;45.624;11.760;2023-09-12T10:05:17;27.37;59.15
71649;SHT31;70112;45.624;11.760;2023-09-12T10:07:45;27.43;58.97
71649;SHT31;70112;45.624;11.760;2023-09-12T10:10:16;27.47;58.59
71649;SHT31;70112;45.624;11.760;2023-09-12T10:12:50;27.52;57.80
71649;SHT31;70112;45.624;11.760;2023-09-12T10:15:22;27.68;57.68
71649;SHT31;70112;45.624;11.760;2023-09-12T10:17:58;27.84;57.32
71649;SHT31;70112;45.624;11.760;2023-09-12T10:20:33;27.88;56.81
71649;SHT31;70112;45.624;11.760;2023-09-12T10:23:05;27.91;56.83
71649;SHT31;70112;45.624;11.760;2023-09-12T10:25:37;27.93;56.90
71649;SHT31;70112;45.624;11.760;2023-09-12T10:28:04;27.90;56.20
71649;SHT31;70112;45.624;11.760;2023-09-12T10:30:31;27.88;56.08
71649;SHT31;70112;45.624;11.760;2023-09-12T10:32:57;27.89;56.41
71649;SHT31;70112;45.624;11.760;2023-09-12T10:35:27;27.92;55.31
71649;SHT31;70112;45.624;11.760;2023-09-12T10:37:53;27.92;54.70
71649;SHT31;70112;45.624;11.760;2023-09-12T10:40:23;27.91;54.81
71649;SHT31;70112;45.624;11.760;2023-09-12T10:42:51;27.92;54.86
71649;SHT31;70112;45.624;11.760;2023-09-12T10:45:18;27.94;55.78
71649;SHT31;70112;45.624;11.760;2023-09-12T10:47:45;27.95;55.72
71649;SHT31;70112;45.624;11.760;2023-09-12T10:50:11;27.90;55.14
71649;SHT31;70112;45.624;11.760;2023-09-12T10:52:37;27.89;55.34
71649;SHT31;70112;45.624;11.760;2023-09-12T10:55:05;27.91;55.54
71649;SHT31;70112;45.624;11.760;2023-09-12T10:57:31;27.93;55.55
71649;SHT31;70112;45.624;11.760;2023-09-12T11:05:00;28.01;55.80
71649;SHT31;70112;45.624;11.760;2023-09-12T11:12:40;28.10;55.58
71649;SHT31;70112;45.624;11.760;2023-09-12T11:15:07;28.12;55.52
71649;SHT31;70112;45.624;11.760;2023-09-12T11:17:38;28.13;55.34
71649;SHT31;70112;45.624;11.760;2023-09-12T11:20:05;28.15;55.57
71649;SHT31;70112;45.624;11.760;2023-09-12T11:22:35;28.16;55.68
71649;SHT31;70112;45.624;11.760;2023-09-12T11:30:21;28.25;55.99
71649;SHT31;70112;45.624;11.760;2023-09-12T11:32:51;28.26;55.47
71649;SHT31;70112;45.624;11.760;2023-09-12T11:35:22;28.27;55.04
71649;SHT31;70112;45.624;11.760;2023-09-12T11:37:51;28.29;55.04
71649;SHT31;70112;45.624;11.760;2023-09-12T11:42:57;28.32;54.83
71649;SHT31;70112;45.624;11.760;2023-09-12T11:45:23;28.32;55.24
71649;SHT31;70112;45.624;11.760;2023-09-12T11:47:49;28.31;54.68
71649;SHT31;70112;45.624;11.760;2023-09-12T11:53:05;28.24;54.01
71649;SHT31;70112;45.624;11.760;2023-09-12T11:55:37;28.21;54.02
71649;SHT31;70112;45.624;11.760;2023-09-12T11:58:09;28.20;54.19
71649;SHT31;70112;45.624;11.760;2023-09-12T12:00:36;28.21;54.53
71649;SHT31;70112;45.624;11.760;2023-09-12T12:03:03;28.23;54.78
71649;SHT31;70112;45.624;11.760;2023-09-12T12:05:29;28.26;54.98
71649;SHT31;70112;45.624;11.760;2023-09-12T12:07:55;28.28;54.91
71649;SHT31;70112;45.624;11.760;2023-09-12T12:10:20;28.28;55.78
71649;SHT31;70112;45.624;11.760;2023-09-12T12:12:52;28.29;54.90
71649;SHT31;70112;45.624;11.760;2023-09-12T12:15:18;28.29;54.98
71649;SHT31;70112;45.624;11.760;2023-09-12T12:17:43;28.28;54.84
71649;SHT31;70112;45.624;11.760;2023-09-12T12:20:10;28.29;55.32
71649;SHT31;70112;45.624;11.760;2023-09-12T12:22:37;28.31;55.77
71649;SHT31;70112;45.624;11.760;2023-09-12T12:25:09;28.33;55.71
71649;SHT31;70112;45.624;11.760;2023-09-12T12:27:39;28.34;54.91
71649;SHT31;70112;45.624;11.760;2023-09-12T12:30:10;28.33;54.72
71649;SHT31;70112;45.624;11.760;2023-09-12T12:32:41;28.33;54.30
71649;SHT31;70112;45.624;11.760;2023-09-12T12:35:09;28.33;54.24
71649;SHT31;70112;45.624;11.760;2023-09-12T12:37:36;28.34;54.32
71649;SHT31;70112;45.624;11.760;2023-09-12T12:40:02;28.33;54.28
71649;SHT31;70112;45.624;11.760;2023-09-12T12:42:37;28.31;53.68
71649;SHT31;70112;45.624;11.760;2023-09-12T12:45:11;28.29;53.86
71649;SHT31;70112;45.624;11.760;2023-09-12T12:47:42;28.29;54.23
71649;SHT31;70112;45.624;11.760;2023-09-12T12:50:15;28.27;54.26
71649;SHT31;70112;45.624;11.760;2023-09-12T12:52:45;28.25;54.22
71649;SHT31;70112;45.624;11.760;2023-09-12T12:55:13;28.23;54.20
71649;SHT31;70112;45.624;11.760;2023-09-12T12:57:42;28.22;54.43
71649;SHT31;70112;45.624;11.760;2023-09-12T13:00:10;28.20;54.33
71649;SHT31;70112;45.624;11.760;2023-09-12T13:02:39;28.17;54.51
71649;SHT31;70112;45.624;11.760;2023-09-12T13:05:19;28.16;54.63
71649;SHT31;70112;45.624;11.760;2023-09-12T13:07:50;28.14;54.82
71649;SHT31;70112;45.624;11.760;2023-09-12T13:10:16;28.12;54.89
71649;SHT31;70112;45.624;11.760;2023-09-12T13:12:42;28.11;55.04
71649;SHT31;70112;45.624;11.760;2023-09-12T13:15:11;28.09;55.46
71649;SHT31;70112;45.624;11.760;2023-09-12T13:17:37;28.09;55.50
71649;SHT31;70112;45.624;11.760;2023-09-12T13:20:04;28.08;55.08
71649;SHT31;70112;45.624;11.760;2023-09-12T13:22:33;28.13;54.69
71649;SHT31;70112;45.624;11.760;2023-09-12T13:24:59;28.14;54.39
71649;SHT31;70112;45.624;11.760;2023-09-12T13:27:25;28.14;54.41
71649;SHT31;70112;45.624;11.760;2023-09-12T13:29:50;28.15;54.69
71649;SHT31;70112;45.624;11.760;2023-09-12T13:32:16;28.16;54.74
71649;SHT31;70112;45.624;11.760;2023-09-12T13:34:43;28.17;55.33
71649;SHT31;70112;45.624;11.760;2023-09-12T13:37:10;28.19;55.39
71649;SHT31;70112;45.624;11.760;2023-09-12T13:39:35;28.20;54.61
71649;SHT31;70112;45.624;11.760;2023-09-12T13:42:01;28.22;54.00
71649;SHT31;70112;45.624;11.760;2023-09-12T13:44:29;28.24;54.26
71649;SHT31;70112;45.624;11.760;2023-09-12T13:46:55;28.24;54.22
71649;SHT31;70112;45.624;11.760;2023-09-12T13:49:21;28.27;54.01
71649;SHT31;70112;45.624;11.760;2023-09-12T13:51:46;28.31;54.50
71649;SHT31;70112;45.624;11.760;2023-09-12T13:54:12;28.35;54.30
71649;SHT31;70112;45.624;11.760;2023-09-12T13:56:43;28.40;54.10
71649;SHT31;70112;45.624;11.760;2023-09-12T13:59:09;28.41;53.89
71649;SHT31;70112;45.624;11.760;2023-09-12T14:01:34;28.42;53.40
71649;SHT31;70112;45.624;11.760;2023-09-12T14:04:00;28.45;53.05
71649;SHT31;70112;45.624;11.760;2023-09-12T14:06:29;28.47;53.07
71649;SHT31;70112;45.624;11.760;2023-09-12T14:08:57;28.46;52.97
71649;SHT31;70112;45.624;11.760;2023-09-12T14:11:22;28.45;53.10
71649;SHT31;70112;45.624;11.760;2023-09-12T14:13:48;28.42;53.38
71649;SHT31;70112;45.624;11.760;2023-09-12T14:16:13;28.41;53.66
71649;SHT31;70112;45.624;11.760;2023-09-12T14:18:39;28.39;53.97
71649;SHT31;70112;45.624;11.760;2023-09-12T14:21:04;28.39;54.34
71649;SHT31;70112;45.624;11.760;2023-09-12T14:23:30;28.38;54.75
71649;SHT31;70112;45.624;11.760;2023-09-12T14:25:55;28.37;54.49
71649;SHT31;70112;45.624;11.760;2023-09-12T14:28:21;28.34;53.73
71649;SHT31;70112;45.624;11.760;2023-09-12T14:30:46;28.33;53.43
71649;SHT31;70112;45.624;11.760;2023-09-12T14:33:14;28.32;53.43
71649;SHT31;70112;45.624;11.760;2023-09-12T14:35:40;28.31;53.86
71649;SHT31;70112;45.624;11.760;2023-09-12T14:38:09;28.31;53.82
71649;SHT31;70112;45.624;11.760;2023-09-12T14:40:34;28.34;53.62
71649;SHT31;70112;45.624;11.760;2023-09-12T14:43:00;28.36;53.16
71649;SHT31;70112;45.624;11.760;2023-09-12T14:45:27;28.36;52.90
71649;SHT31;70112;45.624;11.760;2023-09-12T14:47:53;28.36;52.92
71649;SHT31;70112;45.624;11.760;2023-09-12T14:50:21;28.34;52.95
71649;SHT31;70112;45.624;11.760;2023-09-12T14:52:54;28.33;53.13
71649;SHT31;70112;45.624;11.760;2023-09-12T14:55:20;28.31;53.79
71649;SHT31;70112;45.624;11.760;2023-09-12T14:57:45;28.29;54.16
71649;SHT31;70112;45.624;11.760;2023-09-12T15:00:11;28.26;54.18
71649;SHT31;70112;45.624;11.760;2023-09-12T15:02:36;28.23;54.09
71649;SHT31;70112;45.624;11.760;2023-09-12T15:05:02;28.22;54.06
71649;SHT31;70112;45.624;11.760;2023-09-12T15:07:29;28.20;54.23
71649;SHT31;70112;45.624;11.760;2023-09-12T15:09:55;28.19;54.48
71649;SHT31;70112;45.624;11.760;2023-09-12T15:12:21;28.19;54.75
71649;SHT31;70112;45.624;11.760;2023-09-12T15:14:47;28.17;54.71
71649;SHT31;70112;45.624;11.760;2023-09-12T15:17:14;28.16;54.61
71649;SHT31;70112;45.624;11.760;2023-09-12T15:19:40;28.13;54.59
71649;SHT31;70112;45.624;11.760;2023-09-12T15:22:05;28.12;54.86
71649;SHT31;70112;45.624;11.760;2023-09-12T15:24:31;28.14;56.23
71649;SHT31;70112;45.624;11.760;2023-09-12T15:26:56;28.18;57.51
71649;SHT31;70112;45.624;11.760;2023-09-12T15:29:22;28.21;58.26
71649;SHT31;70112;45.624;11.760;2023-09-12T15:31:47;28.23;58.64
71649;SHT31;70112;45.624;11.760;2023-09-12T15:34:13;28.27;59.18
71649;SHT31;70112;45.624;11.760;2023-09-12T15:36:43;28.30;59.34
71649;SHT31;70112;45.624;11.760;2023-09-12T15:39:11;28.33;59.73
71649;SHT31;70112;45.624;11.760;2023-09-12T15:41:37;28.35;60.30
71649;SHT31;70112;45.624;11.760;2023-09-12T15:44:03;28.37;60.70
71649;SHT31;70112;45.624;11.760;2023-09-12T15:46:29;28.37;60.83